sensor_id;sensor_type;location;lat;lon;timestamp;temperature;humidity
30889;DHT22;51092;50.874;7.024;2023-05-10T00:00:18;13.30;99.90
30889;DHT22;51092;50.874;7.024;2023-05-10T00:01:21;13.30;99.90
30889;DHT22;51092;50.874;7.024;2023-05-10T00:02:23;13.30;99.90
30889;DHT22;51092;50.874;7.024;2023-05-10T00:03:25;13.30;99.90
30889;DHT22;51092;50.874;7.024;2023-05-10T00:04:28;13.30;99.90
30889;DHT22;51092;50.874;7.024;2023-05-10T00:05:30;13.30;99.90
30889;DHT22;51092;50.874;7.024;2023-05-10T00:06:32;13.30;99.90
30889;DHT22;51092;50.874;7.024;2023-05-10T00:07:34;13.30;99.90
30889;DHT22;51092;50.874;7.024;2023-05-10T00:08:36;13.40;99.90
30889;DHT22;51092;50.874;7.024;2023-05-10T00:09:38;13.40;99.90
30889;DHT22;51092;50.874;7.024;2023-05-10T00:10:40;13.40;99.90
30889;DHT22;51092;50.874;7.024;2023-05-10T00:11:42;13.40;99.90
30889;DHT22;51092;50.874;7.024;2023-05-10T00:12:43;13.40;99.90
30889;DHT22;51092;50.874;7.024;2023-05-10T00:13:46;13.40;99.90
30889;DHT22;51092;50.874;7.024;2023-05-10T00:14:48;13.40;99.90
30889;DHT22;51092;50.874;7.024;2023-05-10T00:15:50;13.40;99.90
30889;DHT22;51092;50.874;7.024;2023-05-10T00:16:52;13.40;99.90
30889;DHT22;51092;50.874;7.024;2023-05-10T00:17:54;13.40;99.90
30889;DHT22;51092;50.874;7.024;2023-05-10T00:18:56;13.40;99.90
30889;DHT22;51092;50.874;7.024;2023-05-10T00:19:59;13.50;99.90
30889;DHT22;51092;50.874;7.024;2023-05-10T00:21:01;13.50;99.90
30889;DHT22;51092;50.874;7.024;2023-05-10T00:22:03;13.50;99.90
30889;DHT22;51092;50.874;7.024;2023-05-10T00:23:05;13.50;99.90
30889;DHT22;51092;50.874;7.024;2023-05-10T00:24:07;13.50;99.90
30889;DHT22;51092;50.874;7.024;2023-05-10T00:25:09;13.50;99.90
30889;DHT22;51092;50.874;7.024;2023-05-10T00:26:12;13.40;99.90
30889;DHT22;51092;50.874;7.024;2023-05-10T00:27:13;13.40;99.90
30889;DHT22;51092;50.874;7.024;2023-05-10T00:28:16;13.40;99.90
30889;DHT22;51092;50.874;7.024;2023-05-10T00:29:17;13.40;99.90
30889;DHT22;51092;50.874;7.024;2023-05-10T00:30:20;13.40;99.90
30889;DHT22;51092;50.874;7.024;2023-05-10T00:31:22;13.50;99.90
30889;DHT22;51092;50.874;7.024;2023-05-10T00:32:24;13.50;99.90
30889;DHT22;51092;50.874;7.024;2023-05-10T00:33:26;13.50;99.90
30889;DHT22;51092;50.874;7.024;2023-05-10T00:34:28;13.50;99.90
30889;DHT22;51092;50.874;7.024;2023-05-10T00:35:30;13.40;99.90
30889;DHT22;51092;50.874;7.024;2023-05-10T00:36:32;13.40;99.90
30889;DHT22;51092;50.874;7.024;2023-05-10T00:37:33;13.40;99.90
30889;DHT22;51092;50.874;7.024;2023-05-10T00:38:35;13.40;99.90
30889;DHT22;51092;50.874;7.024;2023-05-10T00:39:37;13.40;99.90
30889;DHT22;51092;50.874;7.024;2023-05-10T00:40:39;13.40;99.90
30889;DHT22;51092;50.874;7.024;2023-05-10T00:41:41;13.50;99.90
30889;DHT22;51092;50.874;7.024;2023-05-10T00:42:43;13.50;99.90
30889;DHT22;51092;50.874;7.024;2023-05-10T00:43:45;13.40;99.90
30889;DHT22;51092;50.874;7.024;2023-05-10T00:44:47;13.40;99.90
30889;DHT22;51092;50.874;7.024;2023-05-10T00:45:49;13.40;99.90
30889;DHT22;51092;50.874;7.024;2023-05-10T00:46:53;13.40;99.90
30889;DHT22;51092;50.874;7.024;2023-05-10T00:47:54;13.40;99.90
30889;DHT22;51092;50.874;7.024;2023-05-10T00:48:57;13.40;99.90
30889;DHT22;51092;50.874;7.024;2023-05-10T00:49:59;13.40;99.90
30889;DHT22;51092;50.874;7.024;2023-05-10T00:51:03;13.50;99.90
30889;DHT22;51092;50.874;7.024;2023-05-10T00:52:05;13.50;99.90
30889;DHT22;51092;50.874;7.024;2023-05-10T00:53:08;13.40;99.90
30889;DHT22;51092;50.874;7.024;2023-05-10T00:54:11;13.40;99.90
30889;DHT22;51092;50.874;7.024;2023-05-10T00:55:14;13.40;99.90
30889;DHT22;51092;50.874;7.024;2023-05-10T00:56:16;13.40;99.90
30889;DHT22;51092;50.874;7.024;2023-05-10T00:57:18;13.40;99.90
30889;DHT22;51092;50.874;7.024;2023-05-10T00:58:20;13.50;99.90
30889;DHT22;51092;50.874;7.024;2023-05-10T00:59:24;13.50;99.90
30889;DHT22;51092;50.874;7.024;2023-05-10T01:00:26;13.50;99.90
30889;DHT22;51092;50.874;7.024;2023-05-10T01:01:28;13.50;99.90
30889;DHT22;51092;50.874;7.024;2023-05-10T01:02:30;13.50;99.90
30889;DHT22;51092;50.874;7.024;2023-05-10T01:03:33;13.40;99.90
30889;DHT22;51092;50.874;7.024;2023-05-10T01:04:35;13.40;99.90
30889;DHT22;51092;50.874;7.024;2023-05-10T01:05:38;13.40;99.90
30889;DHT22;51092;50.874;7.024;2023-05-10T01:06:41;13.40;99.90
30889;DHT22;51092;50.874;7.024;2023-05-10T01:07:44;13.40;99.90
30889;DHT22;51092;50.874;7.024;2023-05-10T01:08:45;13.40;99.90
30889;DHT22;51092;50.874;7.024;2023-05-10T01:09:48;13.40;99.90
30889;DHT22;51092;50.874;7.024;2023-05-10T01:10:50;13.30;99.90
30889;DHT22;51092;50.874;7.024;2023-05-10T01:11:54;13.30;99.90
30889;DHT22;51092;50.874;7.024;2023-05-10T01:12:56;13.30;99.90
30889;DHT22;51092;50.874;7.024;2023-05-10T01:13:59;13.30;99.90
30889;DHT22;51092;50.874;7.024;2023-05-10T01:15:01;13.30;99.90
30889;DHT22;51092;50.874;7.024;2023-05-10T01:16:04;13.30;99.90
30889;DHT22;51092;50.874;7.024;2023-05-10T01:17:06;13.30;99.90
30889;DHT22;51092;50.874;7.024;2023-05-10T01:18:10;13.30;99.90
30889;DHT22;51092;50.874;7.024;2023-05-10T01:19:18;13.30;99.90
30889;DHT22;51092;50.874;7.024;2023-05-10T01:20:21;13.30;99.90
30889;DHT22;51092;50.874;7.024;2023-05-10T01:21:29;13.30;99.90
30889;DHT22;51092;50.874;7.024;2023-05-10T01:22:55;13.30;99.90
30889;DHT22;51092;50.874;7.024;2023-05-10T01:27:24;13.30;99.90
30889;DHT22;51092;50.874;7.024;2023-05-10T01:28:43;13.30;99.90
30889;DHT22;51092;50.874;7.024;2023-05-10T01:30:11;13.30;99.90
30889;DHT22;51092;50.874;7.024;2023-05-10T01:31:38;13.30;99.90
30889;DHT22;51092;50.874;7.024;2023-05-10T01:32:50;13.30;99.90
30889;DHT22;51092;50.874;7.024;2023-05-10T01:33:56;13.30;99.90
30889;DHT22;51092;50.874;7.024;2023-05-10T01:35:03;13.30;99.90
30889;DHT22;51092;50.874;7.024;2023-05-10T01:36:08;13.30;99.90
30889;DHT22;51092;50.874;7.024;2023-05-10T01:37:15;13.30;99.90
30889;DHT22;51092;50.874;7.024;2023-05-10T01:38:20;13.30;99.90
30889;DHT22;51092;50.874;7.024;2023-05-10T01:39:28;13.30;99.90
30889;DHT22;51092;50.874;7.024;2023-05-10T01:40:39;13.30;99.90
30889;DHT22;51092;50.874;7.024;2023-05-10T01:41:47;13.30;99.90
30889;DHT22;51092;50.874;7.024;2023-05-10T01:42:53;13.30;99.90
30889;DHT22;51092;50.874;7.024;2023-05-10T01:44:04;13.30;99.90
30889;DHT22;51092;50.874;7.024;2023-05-10T01:45:16;13.30;99.90
30889;DHT22;51092;50.874;7.024;2023-05-10T01:46:24;13.40;99.90
30889;DHT22;51092;50.874;7.024;2023-05-10T01:47:33;13.40;99.90
30889;DHT22;51092;50.874;7.024;2023-05-10T01:48:42;13.30;99.90
30889;DHT22;51092;50.874;7.024;2023-05-10T01:49:50;13.40;99.90
30889;DHT22;51092;50.874;7.024;2023-05-10T01:50:54;13.40;99.90
30889;DHT22;51092;50.874;7.024;2023-05-10T01:52:03;13.40;99.90
30889;DHT22;51092;50.874;7.024;2023-05-10T01:53:09;13.40;99.90
30889;DHT22;51092;50.874;7.024;2023-05-10T01:54:13;13.40;99.90
30889;DHT22;51092;50.874;7.024;2023-05-10T01:55:18;13.40;99.90
30889;DHT22;51092;50.874;7.024;2023-05-10T01:56:24;13.40;99.90
30889;DHT22;51092;50.874;7.024;2023-05-10T01:57:32;13.40;99.90
30889;DHT22;51092;50.874;7.024;2023-05-10T01:58:35;13.40;99.90
30889;DHT22;51092;50.874;7.024;2023-05-10T01:59:39;13.50;99.90
30889;DHT22;51092;50.874;7.024;2023-05-10T02:00:44;13.40;99.90
30889;DHT22;51092;50.874;7.024;2023-05-10T02:01:47;13.40;99.90
30889;DHT22;51092;50.874;7.024;2023-05-10T02:02:50;13.50;99.90
30889;DHT22;51092;50.874;7.024;2023-05-10T02:03:56;13.50;99.90
30889;DHT22;51092;50.874;7.024;2023-05-10T02:04:59;13.40;99.90
30889;DHT22;51092;50.874;7.024;2023-05-10T02:06:02;13.30;99.90
30889;DHT22;51092;50.874;7.024;2023-05-10T02:07:05;13.40;99.90
30889;DHT22;51092;50.874;7.024;2023-05-10T02:08:08;13.40;99.90
30889;DHT22;51092;50.874;7.024;2023-05-10T02:09:11;13.40;99.90
30889;DHT22;51092;50.874;7.024;2023-05-10T02:10:14;13.40;99.90
30889;DHT22;51092;50.874;7.024;2023-05-10T02:11:17;13.50;99.90
30889;DHT22;51092;50.874;7.024;2023-05-10T02:12:23;13.50;99.90
30889;DHT22;51092;50.874;7.024;2023-05-10T02:13:25;13.40;99.90
30889;DHT22;51092;50.874;7.024;2023-05-10T02:14:29;13.50;99.90
30889;DHT22;51092;50.874;7.024;2023-05-10T02:15:32;13.40;99.90
30889;DHT22;51092;50.874;7.024;2023-05-10T02:16:36;13.50;99.90
30889;DHT22;51092;50.874;7.024;2023-05-10T02:17:39;13.50;99.90
30889;DHT22;51092;50.874;7.024;2023-05-10T02:18:44;13.60;99.90
30889;DHT22;51092;50.874;7.024;2023-05-10T02:19:48;13.60;99.90
30889;DHT22;51092;50.874;7.024;2023-05-10T02:20:52;13.60;99.90
30889;DHT22;51092;50.874;7.024;2023-05-10T02:21:56;13.60;99.90
30889;DHT22;51092;50.874;7.024;2023-05-10T02:22:59;13.50;99.90
30889;DHT22;51092;50.874;7.024;2023-05-10T02:24:02;13.40;99.90
30889;DHT22;51092;50.874;7.024;2023-05-10T02:25:07;13.40;99.90
30889;DHT22;51092;50.874;7.024;2023-05-10T02:26:10;13.40;99.90
30889;DHT22;51092;50.874;7.024;2023-05-10T02:27:15;13.40;99.90
30889;DHT22;51092;50.874;7.024;2023-05-10T02:28:18;13.40;99.90
30889;DHT22;51092;50.874;7.024;2023-05-10T02:29:22;13.40;99.90
30889;DHT22;51092;50.874;7.024;2023-05-10T02:30:25;13.50;99.90
30889;DHT22;51092;50.874;7.024;2023-05-10T02:31:30;13.50;99.90
30889;DHT22;51092;50.874;7.024;2023-05-10T02:32:32;13.60;99.90
30889;DHT22;51092;50.874;7.024;2023-05-10T02:33:35;13.60;99.90
30889;DHT22;51092;50.874;7.024;2023-05-10T02:34:37;13.50;99.90
30889;DHT22;51092;50.874;7.024;2023-05-10T02:35:42;13.50;99.90
30889;DHT22;51092;50.874;7.024;2023-05-10T02:36:44;13.60;99.90
30889;DHT22;51092;50.874;7.024;2023-05-10T02:37:47;13.60;99.90
30889;DHT22;51092;50.874;7.024;2023-05-10T02:38:50;13.60;99.90
30889;DHT22;51092;50.874;7.024;2023-05-10T02:39:55;13.60;99.90
30889;DHT22;51092;50.874;7.024;2023-05-10T02:40:57;13.60;99.90
30889;DHT22;51092;50.874;7.024;2023-05-10T02:42:01;13.60;99.90
30889;DHT22;51092;50.874;7.024;2023-05-10T02:43:04;13.60;99.90
30889;DHT22;51092;50.874;7.024;2023-05-10T02:44:09;13.70;99.90
30889;DHT22;51092;50.874;7.024;2023-05-10T02:45:13;13.70;99.90
30889;DHT22;51092;50.874;7.024;2023-05-10T02:46:16;13.70;99.90
30889;DHT22;51092;50.874;7.024;2023-05-10T02:47:18;13.70;99.90
30889;DHT22;51092;50.874;7.024;2023-05-10T02:48:21;13.80;99.90
30889;DHT22;51092;50.874;7.024;2023-05-10T02:49:23;13.80;99.90
30889;DHT22;51092;50.874;7.024;2023-05-10T02:50:27;13.80;99.90
30889;DHT22;51092;50.874;7.024;2023-05-10T02:51:32;13.80;99.90
30889;DHT22;51092;50.874;7.024;2023-05-10T02:52:40;13.80;99.90
30889;DHT22;51092;50.874;7.024;2023-05-10T02:53:44;13.80;99.90
30889;DHT22;51092;50.874;7.024;2023-05-10T02:54:50;13.80;99.90
30889;DHT22;51092;50.874;7.024;2023-05-10T02:55:55;13.80;99.90
30889;DHT22;51092;50.874;7.024;2023-05-10T02:57:00;13.80;99.90
30889;DHT22;51092;50.874;7.024;2023-05-10T02:58:05;13.80;99.90
30889;DHT22;51092;50.874;7.024;2023-05-10T02:59:07;13.70;99.90
30889;DHT22;51092;50.874;7.024;2023-05-10T03:00:10;13.70;99.90
30889;DHT22;51092;50.874;7.024;2023-05-10T03:01:13;13.70;99.90
30889;DHT22;51092;50.874;7.024;2023-05-10T03:02:14;13.70;99.90
30889;DHT22;51092;50.874;7.024;2023-05-10T03:03:17;13.70;99.90
30889;DHT22;51092;50.874;7.024;2023-05-10T03:04:18;13.70;99.90
30889;DHT22;51092;50.874;7.024;2023-05-10T03:05:21;13.70;99.90
30889;DHT22;51092;50.874;7.024;2023-05-10T03:06:22;13.70;99.90
30889;DHT22;51092;50.874;7.024;2023-05-10T03:07:25;13.70;99.90
30889;DHT22;51092;50.874;7.024;2023-05-10T03:08:26;13.60;99.90
30889;DHT22;51092;50.874;7.024;2023-05-10T03:09:30;13.50;99.90
30889;DHT22;51092;50.874;7.024;2023-05-10T03:10:34;13.60;99.90
30889;DHT22;51092;50.874;7.024;2023-05-10T03:11:49;13.60;99.90
30889;DHT22;51092;50.874;7.024;2023-05-10T03:13:05;13.60;99.90
30889;DHT22;51092;50.874;7.024;2023-05-10T03:14:16;13.50;99.90
30889;DHT22;51092;50.874;7.024;2023-05-10T03:15:36;13.40;99.90
30889;DHT22;51092;50.874;7.024;2023-05-10T03:16:44;13.30;99.90
30889;DHT22;51092;50.874;7.024;2023-05-10T03:17:51;13.20;99.90
30889;DHT22;51092;50.874;7.024;2023-05-10T03:19:01;13.20;99.90
30889;DHT22;51092;50.874;7.024;2023-05-10T03:20:06;13.30;99.90
30889;DHT22;51092;50.874;7.024;2023-05-10T03:21:11;13.40;99.90
30889;DHT22;51092;50.874;7.024;2023-05-10T03:22:18;13.30;99.90
30889;DHT22;51092;50.874;7.024;2023-05-10T03:23:28;13.20;99.90
30889;DHT22;51092;50.874;7.024;2023-05-10T03:24:34;13.20;99.90
30889;DHT22;51092;50.874;7.024;2023-05-10T03:25:37;13.20;99.90
30889;DHT22;51092;50.874;7.024;2023-05-10T03:26:43;13.20;99.90
30889;DHT22;51092;50.874;7.024;2023-05-10T03:27:47;13.20;99.90
30889;DHT22;51092;50.874;7.024;2023-05-10T03:28:50;13.20;99.90
30889;DHT22;51092;50.874;7.024;2023-05-10T03:29:53;13.20;99.90
30889;DHT22;51092;50.874;7.024;2023-05-10T03:30:56;13.20;99.90
30889;DHT22;51092;50.874;7.024;2023-05-10T03:31:59;13.20;99.90
30889;DHT22;51092;50.874;7.024;2023-05-10T03:33:04;13.30;99.90
30889;DHT22;51092;50.874;7.024;2023-05-10T03:34:07;13.30;99.90
30889;DHT22;51092;50.874;7.024;2023-05-10T03:35:09;13.20;99.90
30889;DHT22;51092;50.874;7.024;2023-05-10T03:36:11;13.20;99.90
30889;DHT22;51092;50.874;7.024;2023-05-10T03:37:14;13.30;99.90
30889;DHT22;51092;50.874;7.024;2023-05-10T03:38:16;13.30;99.90
30889;DHT22;51092;50.874;7.024;2023-05-10T03:39:20;13.40;99.90
30889;DHT22;51092;50.874;7.024;2023-05-10T03:40:22;13.50;99.90
30889;DHT22;51092;50.874;7.024;2023-05-10T03:41:25;13.60;99.90
30889;DHT22;51092;50.874;7.024;2023-05-10T03:42:26;13.50;99.90
30889;DHT22;51092;50.874;7.024;2023-05-10T03:43:29;13.50;99.90
30889;DHT22;51092;50.874;7.024;2023-05-10T03:44:31;13.60;99.90
30889;DHT22;51092;50.874;7.024;2023-05-10T03:45:34;13.50;99.90
30889;DHT22;51092;50.874;7.024;2023-05-10T03:46:36;13.60;99.90
30889;DHT22;51092;50.874;7.024;2023-05-10T03:47:38;13.50;99.90
30889;DHT22;51092;50.874;7.024;2023-05-10T03:48:40;13.40;99.90
30889;DHT22;51092;50.874;7.024;2023-05-10T03:49:42;13.40;99.90
30889;DHT22;51092;50.874;7.024;2023-05-10T03:50:44;13.40;99.90
30889;DHT22;51092;50.874;7.024;2023-05-10T03:51:45;13.50;99.90
30889;DHT22;51092;50.874;7.024;2023-05-10T03:52:49;13.50;99.90
30889;DHT22;51092;50.874;7.024;2023-05-10T03:53:50;13.50;99.90
30889;DHT22;51092;50.874;7.024;2023-05-10T03:54:54;13.50;99.90
30889;DHT22;51092;50.874;7.024;2023-05-10T03:55:56;13.50;99.90
30889;DHT22;51092;50.874;7.024;2023-05-10T03:56:58;13.50;99.90
30889;DHT22;51092;50.874;7.024;2023-05-10T03:58:00;13.50;99.90
30889;DHT22;51092;50.874;7.024;2023-05-10T03:59:02;13.50;99.90
30889;DHT22;51092;50.874;7.024;2023-05-10T04:00:09;13.50;99.90
30889;DHT22;51092;50.874;7.024;2023-05-10T04:01:12;13.60;99.90
30889;DHT22;51092;50.874;7.024;2023-05-10T04:02:14;13.60;99.90
30889;DHT22;51092;50.874;7.024;2023-05-10T04:03:16;13.70;99.90
30889;DHT22;51092;50.874;7.024;2023-05-10T04:04:18;13.70;99.90
30889;DHT22;51092;50.874;7.024;2023-05-10T04:05:22;13.50;99.90
30889;DHT22;51092;50.874;7.024;2023-05-10T04:06:23;13.60;99.90
30889;DHT22;51092;50.874;7.024;2023-05-10T04:07:26;13.60;99.90
30889;DHT22;51092;50.874;7.024;2023-05-10T04:08:27;13.70;99.90
30889;DHT22;51092;50.874;7.024;2023-05-10T04:09:29;13.70;99.90
30889;DHT22;51092;50.874;7.024;2023-05-10T04:10:31;13.70;99.90
30889;DHT22;51092;50.874;7.024;2023-05-10T04:11:33;13.70;99.90
30889;DHT22;51092;50.874;7.024;2023-05-10T04:12:35;13.70;99.90
30889;DHT22;51092;50.874;7.024;2023-05-10T04:13:37;13.70;99.90
30889;DHT22;51092;50.874;7.024;2023-05-10T04:14:39;13.70;99.90
30889;DHT22;51092;50.874;7.024;2023-05-10T04:15:41;13.80;99.90
30889;DHT22;51092;50.874;7.024;2023-05-10T04:16:44;13.80;99.90
30889;DHT22;51092;50.874;7.024;2023-05-10T04:17:46;13.80;99.90
30889;DHT22;51092;50.874;7.024;2023-05-10T04:18:48;13.80;99.90
30889;DHT22;51092;50.874;7.024;2023-05-10T04:19:50;13.80;99.90
30889;DHT22;51092;50.874;7.024;2023-05-10T04:20:54;13.80;99.90
30889;DHT22;51092;50.874;7.024;2023-05-10T04:21:56;13.80;99.90
30889;DHT22;51092;50.874;7.024;2023-05-10T04:22:58;13.80;99.90
30889;DHT22;51092;50.874;7.024;2023-05-10T04:24:00;13.80;99.90
30889;DHT22;51092;50.874;7.024;2023-05-10T04:25:02;13.80;99.90
30889;DHT22;51092;50.874;7.024;2023-05-10T04:26:07;13.80;99.90
30889;DHT22;51092;50.874;7.024;2023-05-10T04:27:20;13.80;99.90
30889;DHT22;51092;50.874;7.024;2023-05-10T04:28:22;13.80;99.90
30889;DHT22;51092;50.874;7.024;2023-05-10T04:29:24;13.70;99.90
30889;DHT22;51092;50.874;7.024;2023-05-10T04:30:27;13.70;99.90
30889;DHT22;51092;50.874;7.024;2023-05-10T04:31:30;13.70;99.90
30889;DHT22;51092;50.874;7.024;2023-05-10T04:32:32;13.60;99.90
30889;DHT22;51092;50.874;7.024;2023-05-10T04:33:34;13.70;99.90
30889;DHT22;51092;50.874;7.024;2023-05-10T04:34:37;13.60;99.90
30889;DHT22;51092;50.874;7.024;2023-05-10T04:35:38;13.60;99.90
30889;DHT22;51092;50.874;7.024;2023-05-10T04:36:41;13.60;99.90
30889;DHT22;51092;50.874;7.024;2023-05-10T04:37:42;13.50;99.90
30889;DHT22;51092;50.874;7.024;2023-05-10T04:38:45;13.60;99.90
30889;DHT22;51092;50.874;7.024;2023-05-10T04:39:46;13.60;99.90
30889;DHT22;51092;50.874;7.024;2023-05-10T04:40:48;13.60;99.90
30889;DHT22;51092;50.874;7.024;2023-05-10T04:41:51;13.50;99.90
30889;DHT22;51092;50.874;7.024;2023-05-10T04:42:54;13.50;99.90
30889;DHT22;51092;50.874;7.024;2023-05-10T04:43:55;13.50;99.90
30889;DHT22;51092;50.874;7.024;2023-05-10T04:44:58;13.50;99.90
30889;DHT22;51092;50.874;7.024;2023-05-10T04:45:59;13.50;99.90
30889;DHT22;51092;50.874;7.024;2023-05-10T04:47:02;13.50;99.90
30889;DHT22;51092;50.874;7.024;2023-05-10T04:48:05;13.50;99.90
30889;DHT22;51092;50.874;7.024;2023-05-10T04:49:06;13.50;99.90
30889;DHT22;51092;50.874;7.024;2023-05-10T04:50:09;13.60;99.90
30889;DHT22;51092;50.874;7.024;2023-05-10T04:51:11;13.60;99.90
30889;DHT22;51092;50.874;7.024;2023-05-10T04:52:13;13.50;99.90
30889;DHT22;51092;50.874;7.024;2023-05-10T04:53:16;13.50;99.90
30889;DHT22;51092;50.874;7.024;2023-05-10T04:54:18;13.50;99.90
30889;DHT22;51092;50.874;7.024;2023-05-10T04:55:21;13.50;99.90
30889;DHT22;51092;50.874;7.024;2023-05-10T04:56:22;13.50;99.90
30889;DHT22;51092;50.874;7.024;2023-05-10T04:57:26;13.50;99.90
30889;DHT22;51092;50.874;7.024;2023-05-10T04:58:27;13.50;99.90
30889;DHT22;51092;50.874;7.024;2023-05-10T04:59:30;13.50;99.90
30889;DHT22;51092;50.874;7.024;2023-05-10T05:00:32;13.60;99.90
30889;DHT22;51092;50.874;7.024;2023-05-10T05:01:35;13.60;99.90
30889;DHT22;51092;50.874;7.024;2023-05-10T05:02:36;13.60;99.90
30889;DHT22;51092;50.874;7.024;2023-05-10T05:03:39;13.60;99.90
30889;DHT22;51092;50.874;7.024;2023-05-10T05:04:40;13.50;99.90
30889;DHT22;51092;50.874;7.024;2023-05-10T05:05:43;13.60;99.90
30889;DHT22;51092;50.874;7.024;2023-05-10T05:06:45;13.50;99.90
30889;DHT22;51092;50.874;7.024;2023-05-10T05:07:47;13.60;99.90
30889;DHT22;51092;50.874;7.024;2023-05-10T05:08:49;13.60;99.90
30889;DHT22;51092;50.874;7.024;2023-05-10T05:09:51;13.60;99.90
30889;DHT22;51092;50.874;7.024;2023-05-10T05:10:53;13.50;99.90
30889;DHT22;51092;50.874;7.024;2023-05-10T05:11:55;13.50;99.90
30889;DHT22;51092;50.874;7.024;2023-05-10T05:12:58;13.60;99.90
30889;DHT22;51092;50.874;7.024;2023-05-10T05:14:00;13.50;99.90
30889;DHT22;51092;50.874;7.024;2023-05-10T05:15:02;13.50;99.90
30889;DHT22;51092;50.874;7.024;2023-05-10T05:16:05;13.60;99.90
30889;DHT22;51092;50.874;7.024;2023-05-10T05:17:07;13.60;99.90
30889;DHT22;51092;50.874;7.024;2023-05-10T05:18:10;13.60;99.90
30889;DHT22;51092;50.874;7.024;2023-05-10T05:19:11;13.70;99.90
30889;DHT22;51092;50.874;7.024;2023-05-10T05:20:14;13.70;99.90
30889;DHT22;51092;50.874;7.024;2023-05-10T05:21:16;13.80;99.90
30889;DHT22;51092;50.874;7.024;2023-05-10T05:22:18;13.80;99.90
30889;DHT22;51092;50.874;7.024;2023-05-10T05:23:20;13.70;99.90
30889;DHT22;51092;50.874;7.024;2023-05-10T05:24:25;13.80;99.90
30889;DHT22;51092;50.874;7.024;2023-05-10T05:25:27;13.80;99.90
30889;DHT22;51092;50.874;7.024;2023-05-10T05:26:30;13.70;99.90
30889;DHT22;51092;50.874;7.024;2023-05-10T05:27:31;13.70;99.90
30889;DHT22;51092;50.874;7.024;2023-05-10T05:28:35;13.60;99.90
30889;DHT22;51092;50.874;7.024;2023-05-10T05:29:38;13.60;99.90
30889;DHT22;51092;50.874;7.024;2023-05-10T05:30:40;13.60;99.90
30889;DHT22;51092;50.874;7.024;2023-05-10T05:31:42;13.60;99.90
30889;DHT22;51092;50.874;7.024;2023-05-10T05:32:45;13.60;99.90
30889;DHT22;51092;50.874;7.024;2023-05-10T05:33:48;13.60;99.90
30889;DHT22;51092;50.874;7.024;2023-05-10T05:34:51;13.60;99.90
30889;DHT22;51092;50.874;7.024;2023-05-10T05:35:52;13.60;99.90
30889;DHT22;51092;50.874;7.024;2023-05-10T05:36:54;13.70;99.90
30889;DHT22;51092;50.874;7.024;2023-05-10T05:37:57;13.70;99.90
30889;DHT22;51092;50.874;7.024;2023-05-10T05:38:58;13.60;99.90
30889;DHT22;51092;50.874;7.024;2023-05-10T05:40:01;13.60;99.90
30889;DHT22;51092;50.874;7.024;2023-05-10T05:41:02;13.70;99.90
30889;DHT22;51092;50.874;7.024;2023-05-10T05:42:05;13.70;99.90
30889;DHT22;51092;50.874;7.024;2023-05-10T05:43:06;13.80;99.90
30889;DHT22;51092;50.874;7.024;2023-05-10T05:44:10;13.80;99.90
30889;DHT22;51092;50.874;7.024;2023-05-10T05:45:12;13.90;99.90
30889;DHT22;51092;50.874;7.024;2023-05-10T05:46:15;13.80;99.90
30889;DHT22;51092;50.874;7.024;2023-05-10T05:47:17;13.80;99.90
30889;DHT22;51092;50.874;7.024;2023-05-10T05:48:19;13.70;99.90
30889;DHT22;51092;50.874;7.024;2023-05-10T05:49:21;13.80;99.90
30889;DHT22;51092;50.874;7.024;2023-05-10T05:50:24;13.80;99.90
30889;DHT22;51092;50.874;7.024;2023-05-10T05:51:25;13.80;99.90
30889;DHT22;51092;50.874;7.024;2023-05-10T05:52:27;13.90;99.90
30889;DHT22;51092;50.874;7.024;2023-05-10T05:53:29;13.80;99.90
30889;DHT22;51092;50.874;7.024;2023-05-10T05:54:32;13.90;99.90
30889;DHT22;51092;50.874;7.024;2023-05-10T05:55:33;13.80;99.90
30889;DHT22;51092;50.874;7.024;2023-05-10T05:56:36;13.90;99.90
30889;DHT22;51092;50.874;7.024;2023-05-10T05:57:38;14.00;99.90
30889;DHT22;51092;50.874;7.024;2023-05-10T05:58:41;14.10;99.90
30889;DHT22;51092;50.874;7.024;2023-05-10T05:59:44;14.20;99.90
30889;DHT22;51092;50.874;7.024;2023-05-10T06:00:46;14.10;99.90
30889;DHT22;51092;50.874;7.024;2023-05-10T06:01:48;13.90;99.90
30889;DHT22;51092;50.874;7.024;2023-05-10T06:02:50;14.00;99.90
30889;DHT22;51092;50.874;7.024;2023-05-10T06:03:52;14.00;99.90
30889;DHT22;51092;50.874;7.024;2023-05-10T06:04:54;13.90;99.90
30889;DHT22;51092;50.874;7.024;2023-05-10T06:05:57;13.90;99.90
30889;DHT22;51092;50.874;7.024;2023-05-10T06:06:58;13.90;99.90
30889;DHT22;51092;50.874;7.024;2023-05-10T06:08:01;14.00;99.90
30889;DHT22;51092;50.874;7.024;2023-05-10T06:09:02;14.00;99.90
30889;DHT22;51092;50.874;7.024;2023-05-10T06:10:06;14.00;99.90
30889;DHT22;51092;50.874;7.024;2023-05-10T06:11:08;14.00;99.90
30889;DHT22;51092;50.874;7.024;2023-05-10T06:12:10;14.00;99.90
30889;DHT22;51092;50.874;7.024;2023-05-10T06:13:13;14.00;99.90
30889;DHT22;51092;50.874;7.024;2023-05-10T06:14:15;14.00;99.90
30889;DHT22;51092;50.874;7.024;2023-05-10T06:15:19;14.00;99.90
30889;DHT22;51092;50.874;7.024;2023-05-10T06:16:21;14.00;99.90
30889;DHT22;51092;50.874;7.024;2023-05-10T06:17:23;14.00;99.90
30889;DHT22;51092;50.874;7.024;2023-05-10T06:18:25;14.10;99.90
30889;DHT22;51092;50.874;7.024;2023-05-10T06:19:28;14.10;99.90
30889;DHT22;51092;50.874;7.024;2023-05-10T06:20:30;14.20;99.90
30889;DHT22;51092;50.874;7.024;2023-05-10T06:21:33;14.20;99.90
30889;DHT22;51092;50.874;7.024;2023-05-10T06:22:34;14.30;99.90
30889;DHT22;51092;50.874;7.024;2023-05-10T06:23:37;14.30;99.90
30889;DHT22;51092;50.874;7.024;2023-05-10T06:24:39;14.20;99.90
30889;DHT22;51092;50.874;7.024;2023-05-10T06:25:41;14.20;99.90
30889;DHT22;51092;50.874;7.024;2023-05-10T06:26:43;14.20;99.90
30889;DHT22;51092;50.874;7.024;2023-05-10T06:27:45;14.20;99.90
30889;DHT22;51092;50.874;7.024;2023-05-10T06:28:47;14.20;99.90
30889;DHT22;51092;50.874;7.024;2023-05-10T06:29:49;14.20;99.90
30889;DHT22;51092;50.874;7.024;2023-05-10T06:30:52;14.00;99.90
30889;DHT22;51092;50.874;7.024;2023-05-10T06:31:55;14.00;99.90
30889;DHT22;51092;50.874;7.024;2023-05-10T06:32:56;14.00;99.90
30889;DHT22;51092;50.874;7.024;2023-05-10T06:33:59;14.00;99.90
30889;DHT22;51092;50.874;7.024;2023-05-10T06:35:00;14.10;99.90
30889;DHT22;51092;50.874;7.024;2023-05-10T06:36:03;14.00;99.90
30889;DHT22;51092;50.874;7.024;2023-05-10T06:37:05;14.10;99.90
30889;DHT22;51092;50.874;7.024;2023-05-10T06:38:07;14.20;99.90
30889;DHT22;51092;50.874;7.024;2023-05-10T06:39:09;14.20;99.90
30889;DHT22;51092;50.874;7.024;2023-05-10T06:40:13;14.20;99.90
30889;DHT22;51092;50.874;7.024;2023-05-10T06:41:14;14.20;99.90
30889;DHT22;51092;50.874;7.024;2023-05-10T06:42:17;14.30;99.90
30889;DHT22;51092;50.874;7.024;2023-05-10T06:43:18;14.30;99.90